Seneca Castle, NY (14547)

7:27 AM EST on January 30, 2015 (GMT -0500)
Bunker Hill Road | Change Station
CLOSE
Current Station
Personal Weather Station
Location: Clifton Springs, NY
Elevation: 584 ft
Nearby Weather Stations

Elev 584 ft 42.98 °N, 77.16 °W | Updated 17 seconds ago

Snow
Snow
27.7 °F
Feels Like 28 °F
N
1.8
Wind Variable Wind from NW
Gusts 2.5 mph

Today
High -- | Low -- °F
--% Chance of Precip.
Yesterday
High -- | Low -- °F
Precip. -- in
7:25 AM 5:18 PM
Waxing Gibbous, 82% visible
Pressure 29.93 in
Visibility 4.0 miles
Clouds Overcast 1300 ft
Windchill 28 °F
Dew Point 12 °F
Humidity 52%
Rainfall 0.00 in
Snow Depth Not available.
UV 0 out of 12
Pollen .10 out of 12
Air Quality Not available.
Flu Activity Not available.
METAR KPEO 301153Z AUTO 30008G16KT 4SM -SN OVC013 M02/M05 A2989 RMK AO2 SLP134 P0000 60001 70001 T10221050 11011 21022 53015

More Conditions Fewer Conditions

Pressure 29.93 in
Visibility 4.0 miles
Clouds Overcast 1300 ft
Windchill 28 °F
Dew Point 12 °F
Humidity 52%
Rainfall 0.00 in
Snow Depth Not available.
UV 0 out of 12
Pollen .10 out of 12
Air Quality Not available.
Flu Activity Not available.
METAR KPEO 301153Z AUTO 30008G16KT 4SM -SN OVC013 M02/M05 A2989 RMK AO2 SLP134 P0000 60001 70001 T10221050 11011 21022 53015

More Conditions Fewer Conditions

10-Day Weather Forecast

Almanac

Astronomy

Jan. 30, 2015 Rise Set
Actual Time
Civil Twilight
Nautical Twilight
Astronomical Twilight
Moon
Length of Visible Light
Length of Day
Tomorrow will be .
, % of the Moon is Illuminated

Today's Extremes

State Highs State Lows

Community

WunderPhotos

Upload Photos

1,791,738 photos uploaded!

WunderBlogs® & News

Nearby

Air Quality

  Air Quality AQ Index Pollutant
Not available.

Snow Depth

Station Depth Elevation

Earthquake Activity

City Distance Mag. Time & Date
Minimum magnitude displayed is 2.5.

Coastal Water Temperatures

Place Temperature

Nearby Weather Stations